Time;durP1;ratioP1;P1;durP2;ratioP2;P2;SDS_P1;SDS_P2;PMS_P1;PMS_P2;Temp;Humidity;BMP_temperature;BMP_pressure;BME280_temperature;BME280_humidity;BME280_pressure;Samples;Min_cycle;Max_cycle;Signal;HPM_P1;HPM_P2
2023/07/01 00:00:07;;;;;;;4.60;2.20;;;;;;;22.37;41.10;100735.03;4987490;28;119433;-71
2023/07/01 00:02:40;;;;;;;3.92;1.95;;;;;;;22.34;41.00;100731.63;4988051;28;124958;-71
2023/07/01 00:05:08;;;;;;;5.10;2.00;;;;;;;22.34;41.10;100720.84;4970803;28;124032;-71
2023/07/01 00:07:35;;;;;;;6.07;1.90;;;;;;;22.33;41.07;100723.69;5002197;28;120280;-71
2023/07/01 00:10:02;;;;;;;4.25;1.85;;;;;;;22.31;41.13;100721.13;5002328;28;121457;-71
2023/07/01 00:12:30;;;;;;;3.63;1.70;;;;;;;22.32;41.11;100722.84;5011785;28;124592;-71
2023/07/01 00:14:57;;;;;;;4.45;1.98;;;;;;;22.30;41.09;100718.56;5005306;28;125523;-71
2023/07/01 00:17:25;;;;;;;4.38;2.00;;;;;;;22.29;41.04;100712.31;4994317;28;120093;-71
2023/07/01 00:19:52;;;;;;;3.67;1.80;;;;;;;22.29;41.11;100708.78;4972813;28;118484;-71
2023/07/01 00:22:19;;;;;;;5.70;1.92;;;;;;;22.27;41.06;100698.13;4971141;28;122635;-71
2023/07/01 00:24:47;;;;;;;3.22;1.63;;;;;;;22.23;41.04;100688.63;4971805;28;123211;-71
2023/07/01 00:27:14;;;;;;;3.50;1.80;;;;;;;22.21;40.93;100687.91;4971570;28;118963;-71
2023/07/01 00:29:42;;;;;;;4.68;1.80;;;;;;;22.16;41.14;100679.41;4989785;28;119600;-71
2023/07/01 00:32:09;;;;;;;3.85;2.03;;;;;;;22.14;41.03;100681.41;4970229;28;124213;-71
2023/07/01 00:34:37;;;;;;;3.05;1.75;;;;;;;22.11;41.00;100681.69;4989744;28;124887;-71
2023/07/01 00:37:04;;;;;;;4.32;1.80;;;;;;;22.09;40.98;100681.00;4978146;28;119156;-71
2023/07/01 00:39:31;;;;;;;4.72;1.65;;;;;;;22.08;40.99;100679.31;4990035;28;119288;-71
2023/07/01 00:41:58;;;;;;;5.60;1.60;;;;;;;22.09;40.93;100678.28;4971676;28;124596;-72
2023/07/01 00:44:25;;;;;;;4.38;1.58;;;;;;;22.08;40.95;100666.66;4971518;28;123988;-71
2023/07/01 00:46:53;;;;;;;4.18;1.60;;;;;;;22.09;41.09;100664.81;4989465;28;119283;-71
2023/07/01 00:49:22;;;;;;;4.15;1.77;;;;;;;22.09;41.30;100660.25;4971880;28;118342;-71
2023/07/01 00:51:49;;;;;;;5.07;2.08;;;;;;;22.10;41.10;100653.88;4971467;28;123779;-70
2023/07/01 00:54:16;;;;;;;4.30;1.40;;;;;;;22.09;41.10;100645.94;4990004;28;124726;-71
2023/07/01 00:56:44;;;;;;;5.03;1.80;;;;;;;22.09;41.05;100643.22;4983651;28;120271;-70
2023/07/01 00:59:12;;;;;;;3.83;1.75;;;;;;;22.08;41.17;100634.31;4979014;28;119527;-71
2023/07/01 01:01:43;;;;;;;3.70;1.50;;;;;;;22.07;41.11;100637.16;4954216;28;123031;-71
2023/07/01 01:04:31;;;;;;;4.43;1.77;;;;;;;22.05;41.05;100639.16;4986880;28;123310;-70
2023/07/01 01:07:12;;;;;;;3.75;1.70;;;;;;;22.03;41.11;100638.44;4986002;28;119673;-71
2023/07/01 01:09:48;;;;;;;3.55;1.75;;;;;;;22.02;41.32;100634.03;4988437;28;120032;-71
2023/07/01 01:12:17;;;;;;;5.93;1.90;;;;;;;22.01;41.39;100632.34;4954977;28;123519;-71
2023/07/01 01:14:46;;;;;;;5.60;1.85;;;;;;;22.01;41.27;100626.97;4989183;28;123835;-71
2023/07/01 01:17:14;;;;;;;3.20;1.70;;;;;;;22.02;41.34;100612.47;4971525;28;119663;-71
2023/07/01 01:19:49;;;;;;;4.95;1.65;;;;;;;22.01;41.44;100616.16;4970951;28;118949;-71
2023/07/01 01:22:38;;;;;;;3.42;1.63;;;;;;;22.01;41.37;100606.22;4987515;28;124223;-71
2023/07/01 01:25:28;;;;;;;5.40;1.90;;;;;;;22.02;41.44;100617.84;4989693;28;124492;-71
2023/07/01 01:27:57;;;;;;;3.20;1.55;;;;;;;22.02;41.52;100612.47;4993184;28;120013;-71
2023/07/01 01:30:28;;;;;;;3.72;1.67;;;;;;;22.00;41.46;100609.94;4970427;28;118772;-71
2023/07/01 01:32:56;;;;;;;3.85;1.65;;;;;;;22.01;41.47;100602.69;4988056;28;124047;-71
2023/07/01 01:35:23;;;;;;;4.40;1.73;;;;;;;22.00;41.52;100609.06;4987262;28;124656;-71
2023/07/01 01:38:00;;;;;;;5.22;1.85;;;;;;;22.01;41.65;100602.69;4985835;28;119706;-71
2023/07/01 01:40:38;;;;;;;5.15;1.80;;;;;;;21.99;41.70;100602.81;4978750;28;120027;-71
2023/07/01 01:43:56;;;;;;;5.32;1.90;;;;;;;21.99;41.73;100600.13;4966310;28;124261;-71
2023/07/01 01:46:25;;;;;;;3.40;1.85;;;;;;;21.97;41.70;100594.88;4907659;28;123633;-71
2023/07/01 01:48:55;;;;;;;3.85;1.70;;;;;;;21.97;41.93;100589.50;4907202;28;120394;-71
2023/07/01 01:51:24;;;;;;;4.03;1.92;;;;;;;21.99;42.02;100580.41;4950374;28;120754;-71
2023/07/01 01:53:52;;;;;;;4.00;2.00;;;;;;;22.00;42.04;100582.09;4987747;28;124294;-71
2023/07/01 01:56:20;;;;;;;5.53;1.92;;;;;;;22.00;42.08;100582.09;4970416;28;124921;-70
2023/07/01 01:58:48;;;;;;;3.90;2.03;;;;;;;21.99;42.12;100575.03;4969717;28;118797;-71
2023/07/01 02:01:15;;;;;;;4.20;1.75;;;;;;;21.99;42.33;100570.47;4977598;28;119260;-71
2023/07/01 02:03:44;;;;;;;4.80;1.80;;;;;;;22.01;42.32;100562.22;4973959;28;124834;-70
2023/07/01 02:06:12;;;;;;;3.35;1.63;;;;;;;22.01;42.22;100573.03;4970125;28;123638;-71
2023/07/01 02:08:39;;;;;;;5.30;2.08;;;;;;;22.02;42.38;100563.91;4988243;28;119403;-71
2023/07/01 02:11:06;;;;;;;4.55;1.92;;;;;;;22.01;42.36;100557.69;4987815;28;119463;-71
2023/07/01 02:13:34;;;;;;;4.22;2.05;;;;;;;22.03;42.50;100554.84;4968750;28;123373;-71
2023/07/01 02:16:01;;;;;;;3.22;1.80;;;;;;;22.03;42.67;100552.13;4969454;28;121920;-71
2023/07/01 02:18:28;;;;;;;3.97;1.90;;;;;;;22.03;42.66;100544.03;4969399;28;119043;-71
2023/07/01 02:20:56;;;;;;;3.67;1.80;;;;;;;22.04;42.87;100545.72;4969851;28;118734;-71
2023/07/01 02:23:23;;;;;;;4.97;1.73;;;;;;;22.06;42.83;100538.38;4987945;28;125416;-71
2023/07/01 02:25:50;;;;;;;4.47;1.73;;;;;;;22.07;42.69;100545.44;4988119;28;124607;-70
2023/07/01 02:28:18;;;;;;;3.03;1.70;;;;;;;22.06;42.95;100539.22;4988038;28;120012;-71
2023/07/01 02:30:45;;;;;;;5.78;2.38;;;;;;;22.05;42.94;100536.66;4970177;28;118097;-71
2023/07/01 02:33:13;;;;;;;5.00;1.80;;;;;;;22.06;43.03;100527.56;4970016;28;124108;-71
2023/07/01 02:35:40;;;;;;;4.20;2.10;;;;;;;22.04;43.09;100521.47;4970093;28;122768;-71
2023/07/01 02:38:08;;;;;;;3.85;2.05;;;;;;;22.05;43.32;100525.88;4969206;28;119966;-71
2023/07/01 02:40:35;;;;;;;4.82;2.00;;;;;;;22.03;43.28;100527.88;4988130;28;120229;-71
2023/07/01 02:43:02;;;;;;;4.40;1.88;;;;;;;22.00;43.25;100522.75;4990332;28;124233;-71
2023/07/01 02:45:30;;;;;;;3.75;1.83;;;;;;;22.00;43.54;100517.38;4987916;28;124916;-71
2023/07/01 02:47:57;;;;;;;4.82;2.10;;;;;;;22.00;43.68;100520.06;4987549;28;119114;-71
2023/07/01 02:50:24;;;;;;;4.90;2.30;;;;;;;22.00;43.68;100517.38;4969318;28;117300;-71
2023/07/01 02:52:51;;;;;;;4.43;2.00;;;;;;;21.97;43.78;100513.97;4969240;28;123341;-70
2023/07/01 02:55:19;;;;;;;5.00;2.42;;;;;;;21.96;43.58;100523.09;4987491;28;124683;-71
2023/07/01 02:57:46;;;;;;;5.55;2.10;;;;;;;21.96;43.83;100523.09;4987720;28;119346;-71
2023/07/01 03:00:14;;;;;;;5.32;2.60;;;;;;;21.94;44.03;100519.69;4987524;28;118811;-71
2023/07/01 03:02:41;;;;;;;3.97;2.08;;;;;;;21.92;44.03;100521.66;4968906;28;124517;-71
2023/07/01 03:05:09;;;;;;;5.40;2.38;;;;;;;21.90;44.17;100528.22;4985007;28;124024;-71
2023/07/01 03:07:36;;;;;;;5.68;2.40;;;;;;;21.88;44.36;100520.28;4970071;28;118354;-71
2023/07/01 03:10:06;;;;;;;4.10;2.17;;;;;;;21.86;44.45;100527.66;4987484;28;119451;-70
2023/07/01 03:12:33;;;;;;;5.28;2.40;;;;;;;21.84;44.56;100513.50;4953609;28;123501;-71
2023/07/01 03:15:01;;;;;;;5.18;2.40;;;;;;;21.82;44.75;100518.19;4971887;28;123379;-71
2023/07/01 03:17:28;;;;;;;4.32;2.40;;;;;;;21.81;44.92;100512.94;4978669;28;119155;-71
2023/07/01 03:19:55;;;;;;;5.30;2.70;;;;;;;21.77;45.11;100509.69;4987080;28;119282;-71
2023/07/01 03:22:23;;;;;;;4.28;2.30;;;;;;;21.74;45.16;100512.72;4968506;28;124529;-71
2023/07/01 03:24:50;;;;;;;3.80;2.03;;;;;;;21.72;45.40;100503.94;4968871;28;123467;-71
2023/07/01 03:27:17;;;;;;;4.82;2.10;;;;;;;21.68;46.00;100502.50;4986466;28;120528;-71
2023/07/01 03:29:45;;;;;;;5.38;2.00;;;;;;;21.61;46.36;100509.50;4967566;28;120051;-70
2023/07/01 03:32:12;;;;;;;5.82;1.92;;;;;;;21.52;46.81;100504.00;4985872;28;124182;-70
2023/07/01 03:34:39;;;;;;;2.67;1.63;;;;;;;21.45;47.14;100486.72;4984250;28;123805;-70
2023/07/01 03:37:06;;;;;;;2.63;1.63;;;;;;;21.40;47.54;100489.00;4982691;28;119198;-71
2023/07/01 03:39:34;;;;;;;2.17;1.52;;;;;;;21.35;47.87;100485.91;4960071;28;119379;-71
2023/07/01 03:42:01;;;;;;;4.32;1.70;;;;;;;21.32;48.11;100483.50;4991955;28;126106;-71
2023/07/01 03:44:28;;;;;;;3.92;2.00;;;;;;;21.29;48.05;100481.09;4968207;28;122882;-70
2023/07/01 03:46:55;;;;;;;4.30;1.90;;;;;;;21.26;48.48;100481.41;4986832;28;120278;-71
2023/07/01 03:49:22;;;;;;;2.97;1.88;;;;;;;21.24;48.53;100478.00;4971533;28;117344;-71
2023/07/01 03:51:50;;;;;;;6.18;2.08;;;;;;;21.23;48.54;100477.16;4995193;28;124083;-71
2023/07/01 03:54:17;;;;;;;3.05;1.83;;;;;;;21.21;48.71;100468.38;4967589;28;122980;-71
2023/07/01 03:56:44;;;;;;;5.85;2.00;;;;;;;21.19;48.75;100471.22;4986423;28;119341;-70
2023/07/01 03:59:11;;;;;;;4.65;1.88;;;;;;;21.17;48.82;100483.97;4989105;28;118984;-70
2023/07/01 04:01:39;;;;;;;4.82;1.95;;;;;;;21.14;49.27;100473.50;4986122;28;123978;-71
2023/07/01 04:04:06;;;;;;;3.97;2.05;;;;;;;21.12;49.33;100472.78;4985868;28;123674;-71
2023/07/01 04:06:33;;;;;;;5.35;1.98;;;;;;;21.10;49.53;100465.88;4986871;28;119253;-71
2023/07/01 04:09:01;;;;;;;4.60;1.90;;;;;;;21.07;49.69;100466.16;4986872;28;118775;-70
2023/07/01 04:11:28;;;;;;;6.13;2.10;;;;;;;21.05;50.01;100468.97;4967690;28;123199;-71
2023/07/01 04:13:55;;;;;;;7.53;2.10;;;;;;;21.05;49.98;100462.75;4986574;28;124675;-71
2023/07/01 04:16:22;;;;;;;4.72;2.10;;;;;;;21.04;50.01;100461.91;4985784;28;120273;-71
2023/07/01 04:18:50;;;;;;;4.38;2.40;;;;;;;21.04;50.32;100467.31;4986676;28;120109;-71
2023/07/01 04:21:17;;;;;;;2.63;1.90;;;;;;;21.01;50.50;100462.19;4956380;28;124572;-70
2023/07/01 04:23:44;;;;;;;3.75;2.15;;;;;;;20.95;50.68;100452.03;4968079;28;123771;-71
2023/07/01 04:26:11;;;;;;;5.22;2.30;;;;;;;20.90;51.19;100459.69;4968394;28;119684;-70
2023/07/01 04:28:38;;;;;;;4.00;1.88;;;;;;;20.86;51.28;100452.91;4969060;28;118914;-71
2023/07/01 04:31:06;;;;;;;3.60;1.98;;;;;;;20.83;51.57;100453.16;4987552;28;124265;-71
2023/07/01 04:33:33;;;;;;;3.67;2.10;;;;;;;20.77;51.75;100444.69;4960886;28;123713;-70
2023/07/01 04:36:01;;;;;;;4.13;1.63;;;;;;;20.73;52.09;100443.28;4970530;28;119558;-71
2023/07/01 04:38:28;;;;;;;3.80;2.20;;;;;;;20.67;52.05;100438.47;4994417;28;119329;-71
2023/07/01 04:40:55;;;;;;;2.78;1.60;;;;;;;20.64;52.38;100433.38;4966908;28;124121;-70
2023/07/01 04:43:22;;;;;;;3.88;2.13;;;;;;;20.61;52.66;100433.69;4985763;28;123843;-71
2023/07/01 04:45:49;;;;;;;2.58;1.90;;;;;;;20.55;52.72;100431.50;4968657;28;119861;-70
2023/07/01 04:48:18;;;;;;;3.08;1.80;;;;;;;20.54;52.95;100437.91;4951474;28;118010;-71
2023/07/01 04:50:45;;;;;;;3.95;1.90;;;;;;;20.52;53.21;100431.81;4967950;28;124626;-71
2023/07/01 04:53:13;;;;;;;3.65;2.00;;;;;;;20.49;53.31;100429.41;4985908;28;124511;-70
2023/07/01 04:55:40;;;;;;;2.50;1.90;;;;;;;20.48;53.64;100427.72;4967584;28;118129;-70
2023/07/01 04:58:07;;;;;;;4.13;2.22;;;;;;;20.43;53.75;100420.91;4986392;28;119023;-71
2023/07/01 05:00:34;;;;;;;3.70;1.85;;;;;;;20.40;53.92;100421.22;4988267;28;123906;-71
2023/07/01 05:03:02;;;;;;;4.25;1.77;;;;;;;20.39;53.97;100418.66;4989037;28;124740;-70
2023/07/01 05:05:30;;;;;;;3.85;2.05;;;;;;;20.36;54.23;100419.81;4988249;28;120533;-71
2023/07/01 05:07:57;;;;;;;2.88;2.13;;;;;;;20.34;54.20;100416.41;4971715;28;119117;-70
2023/07/01 05:10:24;;;;;;;3.80;1.90;;;;;;;20.31;54.55;100422.06;4954298;28;124334;-71
2023/07/01 05:12:51;;;;;;;4.20;2.20;;;;;;;20.29;54.67;100421.38;4970759;28;122668;-70
2023/07/01 05:15:19;;;;;;;3.88;2.10;;;;;;;20.28;54.84;100416.97;4992229;28;119416;-70
2023/07/01 05:17:46;;;;;;;3.00;2.00;;;;;;;20.25;54.69;100414.56;4989269;28;118746;-71
2023/07/01 05:20:13;;;;;;;4.07;2.10;;;;;;;20.26;55.24;100416.25;4988177;28;123004;-71
2023/07/01 05:22:41;;;;;;;4.28;1.90;;;;;;;20.27;55.14;100415.28;4989381;28;124414;-70
2023/07/01 05:25:08;;;;;;;3.13;2.30;;;;;;;20.27;55.15;100415.28;4988677;28;120033;-71
2023/07/01 05:27:35;;;;;;;3.50;2.10;;;;;;;20.27;55.23;100415.28;4970821;28;119293;-70
2023/07/01 05:30:03;;;;;;;3.10;2.03;;;;;;;20.26;55.47;100413.56;4947147;28;124236;-70
2023/07/01 05:32:30;;;;;;;2.75;1.75;;;;;;;20.26;55.38;100405.50;4969951;28;124494;-71
2023/07/01 05:34:57;;;;;;;4.25;2.20;;;;;;;20.23;55.57;100408.50;4988390;28;119134;-71
2023/07/01 05:37:24;;;;;;;4.03;2.20;;;;;;;20.20;55.58;100409.63;4989180;28;118535;-70
2023/07/01 05:39:51;;;;;;;2.90;2.10;;;;;;;20.20;55.89;100408.78;4968641;28;124703;-71
2023/07/01 05:42:18;;;;;;;4.40;2.10;;;;;;;20.19;55.78;100407.94;4969352;28;123808;-71
2023/07/01 05:44:46;;;;;;;4.60;2.38;;;;;;;20.20;56.01;100403.38;4987871;28;119644;-71
2023/07/01 05:47:13;;;;;;;3.25;2.28;;;;;;;20.22;56.00;100401.41;4970910;28;118905;-71
2023/07/01 05:49:40;;;;;;;2.67;2.10;;;;;;;20.23;56.08;100400.44;4988020;28;124383;-71
2023/07/01 05:52:07;;;;;;;3.97;2.00;;;;;;;20.23;56.27;100403.97;4988532;28;123809;-71
2023/07/01 05:54:34;;;;;;;3.42;2.30;;;;;;;20.23;56.36;100397.75;4987537;28;120817;-70
2023/07/01 05:57:02;;;;;;;4.35;2.03;;;;;;;20.22;56.46;100394.19;4988508;28;120357;-70
2023/07/01 05:59:29;;;;;;;2.33;1.77;;;;;;;20.26;56.53;100401.97;4969727;28;126094;-71
2023/07/01 06:01:56;;;;;;;3.45;1.80;;;;;;;20.26;56.43;100397.44;4987625;28;124414;-71
2023/07/01 06:04:23;;;;;;;5.30;2.20;;;;;;;20.27;56.69;100404.53;4970007;28;119323;-70
2023/07/01 06:06:50;;;;;;;3.38;1.88;;;;;;;20.26;56.78;100392.06;4970472;28;118640;-71
2023/07/01 06:09:17;;;;;;;2.65;1.73;;;;;;;20.27;56.93;100399.16;4987986;28;122512;-70
2023/07/01 06:11:45;;;;;;;3.53;2.20;;;;;;;20.29;57.03;100396.31;4987298;28;124339;-71
2023/07/01 06:14:12;;;;;;;6.20;2.33;;;;;;;20.30;57.07;100392.63;4974776;28;119162;-70
2023/07/01 06:16:39;;;;;;;2.65;2.17;;;;;;;20.30;57.03;100393.47;4988026;28;119072;-71
2023/07/01 06:19:06;;;;;;;4.90;2.20;;;;;;;20.30;57.29;100396.16;4987624;28;124152;-71
2023/07/01 06:21:33;;;;;;;3.22;2.20;;;;;;;20.30;57.17;100390.78;4969239;28;124002;-71
2023/07/01 06:24:01;;;;;;;2.90;2.25;;;;;;;20.31;57.31;100397.03;4987917;28;119303;-71
2023/07/01 06:26:28;;;;;;;6.82;2.53;;;;;;;20.30;57.51;100393.47;4987870;28;119245;-70
2023/07/01 06:28:55;;;;;;;2.63;2.15;;;;;;;20.29;57.67;100399.84;4987978;28;124197;-71
2023/07/01 06:31:22;;;;;;;5.03;2.10;;;;;;;20.29;57.50;100396.31;4973063;28;122919;-71
2023/07/01 06:33:49;;;;;;;4.85;2.17;;;;;;;20.28;57.37;100384.69;4988012;28;119989;-71
2023/07/01 06:36:18;;;;;;;2.97;2.10;;;;;;;20.28;57.86;100387.38;4954382;28;119232;-71
2023/07/01 06:38:48;;;;;;;3.30;2.38;;;;;;;20.30;57.72;100382.72;4987993;28;124357;-70
2023/07/01 06:41:16;;;;;;;3.58;2.50;;;;;;;20.31;57.87;100389.78;4984717;28;123467;-70
2023/07/01 06:43:43;;;;;;;2.95;2.28;;;;;;;20.31;57.78;100384.41;4952758;28;119345;-70
2023/07/01 06:46:10;;;;;;;3.85;2.30;;;;;;;20.35;57.93;100384.97;4984754;28;120875;-71
2023/07/01 06:48:42;;;;;;;3.25;2.30;;;;;;;20.37;58.01;100377.63;4987416;28;124595;-71
2023/07/01 06:51:09;;;;;;;3.42;2.50;;;;;;;20.41;58.10;100389.78;4967229;28;124255;-71
2023/07/01 06:53:40;;;;;;;3.38;2.30;;;;;;;20.45;58.41;100376.88;4987437;28;120139;-71
2023/07/01 06:56:07;;;;;;;2.97;2.15;;;;;;;20.50;58.30;100386.22;4970125;28;119585;-70
2023/07/01 06:58:35;;;;;;;3.08;2.30;;;;;;;20.54;58.28;100376.03;4970215;28;124621;-71
2023/07/01 07:01:03;;;;;;;2.85;2.15;;;;;;;20.57;58.31;100373.06;4975710;28;122813;-71
2023/07/01 07:03:30;;;;;;;3.05;2.20;;;;;;;20.60;58.38;100380.84;4970965;28;118315;-71
2023/07/01 07:05:58;;;;;;;3.20;2.03;;;;;;;20.62;58.35;100373.47;4989127;28;118638;-71
2023/07/01 07:08:25;;;;;;;3.45;2.13;;;;;;;20.63;58.18;100377.88;4987881;28;124270;-71
2023/07/01 07:10:52;;;;;;;2.72;2.00;;;;;;;20.63;58.23;100372.50;4969273;28;123715;-70
2023/07/01 07:13:19;;;;;;;2.72;2.15;;;;;;;20.63;58.30;100383.25;4982630;28;119155;-71
2023/07/01 07:15:47;;;;;;;2.65;2.25;;;;;;;20.66;58.39;100376.72;4984344;28;119866;-70
2023/07/01 07:18:14;;;;;;;2.95;2.00;;;;;;;20.66;58.39;100364.09;4969498;28;124716;-71
2023/07/01 07:20:41;;;;;;;4.15;2.28;;;;;;;20.66;58.39;100366.81;4987469;28;124486;-70
2023/07/01 07:23:08;;;;;;;2.65;2.00;;;;;;;20.66;58.32;100361.41;4986129;28;119962;-71
2023/07/01 07:25:36;;;;;;;3.25;2.03;;;;;;;20.68;58.50;100364.84;4987745;28;119215;-70
2023/07/01 07:28:03;;;;;;;3.08;1.98;;;;;;;20.69;58.36;100366.53;4994855;28;124132;-71
2023/07/01 07:30:30;;;;;;;2.75;2.10;;;;;;;20.70;58.55;100368.22;4968751;28;125074;-70
2023/07/01 07:32:58;;;;;;;2.85;1.95;;;;;;;20.71;58.47;100369.91;4968098;28;119576;-71
2023/07/01 07:35:25;;;;;;;2.67;2.13;;;;;;;20.72;58.33;100360.84;4968496;28;120143;-70
2023/07/01 07:37:52;;;;;;;2.42;2.10;;;;;;;20.73;58.37;100367.06;4967995;28;122872;-70
2023/07/01 07:40:19;;;;;;;4.32;2.00;;;;;;;20.75;58.33;100376.69;4986909;28;123714;-70
2023/07/01 07:42:53;;;;;;;3.58;2.00;;;;;;;20.77;58.66;100361.25;4986291;28;120159;-70
2023/07/01 07:45:21;;;;;;;3.63;1.95;;;;;;;20.79;58.54;100364.66;4982483;28;119126;-70
2023/07/01 07:47:48;;;;;;;2.38;1.98;;;;;;;20.80;58.40;100369.03;4988395;28;124703;-70
2023/07/01 07:50:16;;;;;;;3.80;2.50;;;;;;;20.82;58.37;100365.34;4985696;28;124029;-70
2023/07/01 07:52:43;;;;;;;2.97;2.42;;;;;;;20.79;58.47;100372.72;4986866;28;120529;-70
2023/07/01 07:55:10;;;;;;;3.63;2.50;;;;;;;20.79;58.39;100367.34;4967186;28;118624;-70
2023/07/01 07:57:37;;;;;;;3.17;2.33;;;;;;;20.80;58.46;100363.66;4967578;28;124224;-70
2023/07/01 08:00:05;;;;;;;3.35;2.63;;;;;;;20.80;58.55;100363.66;4985554;28;123857;-70
2023/07/01 08:02:42;;;;;;;3.70;2.70;;;;;;;20.79;58.50;100359.28;4985363;28;119946;-71
2023/07/01 08:05:15;;;;;;;3.55;2.40;;;;;;;20.83;58.37;100361.66;4982606;28;118529;-70
2023/07/01 08:07:45;;;;;;;3.95;2.53;;;;;;;20.85;58.73;100362.34;4983413;28;123954;-70
2023/07/01 08:10:13;;;;;;;3.17;2.80;;;;;;;20.90;59.13;100346.63;4983732;28;123889;-70
2023/07/01 08:12:40;;;;;;;4.85;2.88;;;;;;;20.95;58.89;100358.63;4967623;28;119619;-70
2023/07/01 08:15:09;;;;;;;4.40;2.80;;;;;;;21.01;59.03;100354.50;4984874;28;119289;-70
2023/07/01 08:17:36;;;;;;;2.92;2.63;;;;;;;21.08;58.88;100350.22;4985038;28;123502;-70
2023/07/01 08:20:04;;;;;;;3.15;2.85;;;;;;;21.12;58.84;100346.22;4984586;28;124386;-70
2023/07/01 08:22:31;;;;;;;3.83;3.08;;;;;;;21.14;58.81;100349.59;4982634;28;120309;-70
2023/07/01 08:24:58;;;;;;;4.40;2.95;;;;;;;21.15;58.92;100350.44;4985549;28;119927;-70
2023/07/01 08:27:26;;;;;;;4.00;2.97;;;;;;;21.17;58.99;100346.63;4985016;28;123975;-70
2023/07/01 08:29:53;;;;;;;5.82;3.08;;;;;;;21.20;59.06;100346.31;4967283;28;124630;-70
2023/07/01 08:32:20;;;;;;;3.70;2.92;;;;;;;21.26;59.00;100347.56;4968547;28;118582;-70
2023/07/01 08:34:47;;;;;;;3.50;3.03;;;;;;;21.30;59.01;100340.03;4985928;28;118763;-70
2023/07/01 08:37:14;;;;;;;3.92;3.08;;;;;;;21.33;59.04;100342.41;4988404;28;124018;-70
2023/07/01 08:39:42;;;;;;;3.70;2.90;;;;;;;21.35;59.03;100340.41;4970681;28;123915;-70
2023/07/01 08:42:16;;;;;;;3.38;3.00;;;;;;;21.36;59.14;100337.59;4970222;28;119326;-71
2023/07/01 08:44:46;;;;;;;5.55;3.38;;;;;;;21.39;59.32;100341.81;4984565;28;118959;-71
2023/07/01 08:47:15;;;;;;;3.33;2.97;;;;;;;21.40;59.13;100327.34;4984327;28;124043;-70
2023/07/01 08:49:50;;;;;;;3.67;2.83;;;;;;;21.41;59.19;100338.97;4988444;28;123938;-70
2023/07/01 08:52:21;;;;;;;3.42;3.10;;;;;;;21.42;59.31;100336.13;4976171;28;118441;-70
2023/07/01 08:54:48;;;;;;;3.25;2.80;;;;;;;21.46;59.27;100337.53;4985545;28;118697;-70
2023/07/01 08:57:18;;;;;;;3.25;2.95;;;;;;;21.49;59.58;100331.88;4989212;28;124580;-70
2023/07/01 08:59:47;;;;;;;3.20;2.90;;;;;;;21.53;59.34;100333.25;4988216;28;122710;-70
2023/07/01 09:02:15;;;;;;;3.97;2.80;;;;;;;21.53;59.21;100327.84;4988433;28;119164;-70
2023/07/01 09:04:43;;;;;;;3.00;2.33;;;;;;;21.58;59.66;100324.69;4981261;28;118945;-70
2023/07/01 09:07:10;;;;;;;2.92;2.38;;;;;;;21.63;59.62;100332.34;4962686;28;122880;-70
2023/07/01 09:09:38;;;;;;;2.50;2.30;;;;;;;21.70;59.79;100322.59;4988844;28;123687;-70
2023/07/01 09:12:06;;;;;;;2.63;2.25;;;;;;;21.77;59.82;100329.06;4986693;28;121049;-70
2023/07/01 09:15:09;;;;;;;2.85;2.28;;;;;;;21.82;59.58;100326.78;4988668;28;120411;-70
2023/07/01 09:17:38;;;;;;;2.20;2.00;;;;;;;21.84;59.78;100318.53;4945715;28;123782;-71
2023/07/01 09:20:11;;;;;;;2.92;2.15;;;;;;;21.85;59.72;100321.09;4987920;28;124025;-70
2023/07/01 09:22:43;;;;;;;2.72;2.13;;;;;;;21.88;59.67;100328.00;4987408;28;120560;-69
2023/07/01 09:25:25;;;;;;;2.40;2.20;;;;;;;21.92;59.84;100332.91;4985280;28;119835;-70
2023/07/01 09:27:52;;;;;;;2.17;1.98;;;;;;;21.95;59.76;100327.22;4984602;28;124315;-70
2023/07/01 09:30:19;;;;;;;2.30;2.10;;;;;;;21.99;59.83;100321.53;4969937;28;126922;-70
2023/07/01 09:32:47;;;;;;;2.20;2.00;;;;;;;22.01;59.87;100324.91;4988258;28;120133;-70
2023/07/01 09:35:14;;;;;;;2.30;2.00;;;;;;;22.03;59.80;100320.22;4986625;28;118446;-71
2023/07/01 09:37:42;;;;;;;2.88;1.90;;;;;;;22.04;59.95;100319.19;4969542;28;123244;-70
2023/07/01 09:40:35;;;;;;;2.25;1.85;;;;;;;22.07;59.90;100313.50;4970184;28;123670;-70
2023/07/01 09:43:03;;;;;;;2.35;1.63;;;;;;;22.13;60.17;100312.84;4983823;28;119214;-71
2023/07/01 09:45:30;;;;;;;1.85;1.65;;;;;;;22.19;60.35;100306.84;4985769;28;120007;-70
2023/07/01 09:48:11;;;;;;;2.05;1.50;;;;;;;22.25;60.21;100306.25;4984616;28;123712;-71
2023/07/01 09:50:39;;;;;;;1.65;1.55;;;;;;;22.31;60.05;100307.47;4982718;28;124338;-71
2023/07/01 09:53:21;;;;;;;1.60;1.50;;;;;;;22.32;60.04;100301.91;4987792;28;120328;-71
2023/07/01 09:55:49;;;;;;;1.65;1.55;;;;;;;22.33;60.14;100298.19;4953719;28;118363;-71
2023/07/01 09:58:16;;;;;;;2.50;1.60;;;;;;;22.35;60.03;100306.97;4988261;28;123891;-71
2023/07/01 10:00:44;;;;;;;2.00;1.75;;;;;;;22.37;60.13;100297.88;4974791;28;124276;-71
2023/07/01 10:03:12;;;;;;;2.58;1.67;;;;;;;22.39;60.13;100301.28;4987866;28;119161;-71
2023/07/01 10:05:42;;;;;;;1.80;1.70;;;;;;;22.41;60.22;100304.66;4970005;28;120445;-71
2023/07/01 10:08:09;;;;;;;1.90;1.52;;;;;;;22.42;60.21;100300.97;4988127;28;123881;-71
2023/07/01 10:10:36;;;;;;;1.75;1.63;;;;;;;22.44;60.29;100297.09;4987689;28;123683;-71
2023/07/01 10:13:05;;;;;;;1.95;1.50;;;;;;;22.46;60.25;100296.94;4970362;28;119629;-70
2023/07/01 10:15:35;;;;;;;2.38;1.73;;;;;;;22.48;60.20;100305.72;4969685;28;118219;-71
2023/07/01 10:18:02;;;;;;;1.90;1.70;;;;;;;22.47;60.19;100298.59;4987503;28;123907;-71
2023/07/01 10:20:32;;;;;;;2.58;1.67;;;;;;;22.47;60.17;100299.47;4978468;28;125310;-71
2023/07/01 10:23:03;;;;;;;2.30;1.55;;;;;;;22.47;60.22;100287.81;4969426;28;118495;-70
2023/07/01 10:25:38;;;;;;;2.08;1.60;;;;;;;22.48;60.23;100294.91;4985187;28;118987;-71
2023/07/01 10:28:10;;;;;;;2.15;1.42;;;;;;;22.49;60.17;100291.19;4986714;28;123264;-70
2023/07/01 10:30:43;;;;;;;2.88;1.73;;;;;;;22.51;60.44;100291.91;4985836;28;124204;-70
2023/07/01 10:33:33;;;;;;;3.20;1.70;;;;;;;22.53;60.13;100292.59;4987806;28;119346;-71
2023/07/01 10:36:04;;;;;;;3.30;1.70;;;;;;;22.54;60.20;100294.28;4984549;28;119878;-71
2023/07/01 10:38:32;;;;;;;1.70;1.52;;;;;;;22.57;60.14;100288.56;4987320;28;124049;-70
2023/07/01 10:41:00;;;;;;;2.38;1.58;;;;;;;22.60;60.40;100288.22;4987245;28;124037;-70
2023/07/01 10:43:31;;;;;;;2.28;1.80;;;;;;;22.65;60.43;100283.19;4988089;28;119356;-70
2023/07/01 10:46:07;;;;;;;1.88;1.50;;;;;;;22.70;60.39;100283.56;4966930;28;119335;-71
2023/07/01 10:48:36;;;;;;;2.25;1.15;;;;;;;22.76;60.34;100282.06;4980168;28;124759;-71
2023/07/01 10:51:08;;;;;;;2.05;1.30;;;;;;;22.82;60.35;100285.97;4987805;28;123334;-70
2023/07/01 10:54:04;;;;;;;1.70;1.40;;;;;;;22.91;60.30;100282.31;4986055;28;122077;-71
2023/07/01 10:56:33;;;;;;;2.10;1.55;;;;;;;22.99;60.25;100271.50;4986565;28;119914;-71
2023/07/01 10:59:21;;;;;;;1.73;1.38;;;;;;;23.05;59.88;100278.97;4987640;28;124591;-71
2023/07/01 11:01:50;;;;;;;2.08;1.20;;;;;;;23.12;59.95;100277.31;4969165;28;126148;-70
2023/07/01 11:04:19;;;;;;;1.80;1.20;;;;;;;23.18;59.96;100280.38;4969865;28;118933;-71
2023/07/01 11:06:54;;;;;;;1.88;1.23;;;;;;;23.23;59.56;100283.44;4954547;28;118424;-70
2023/07/01 11:09:27;;;;;;;;;;;;;;;23.25;59.37;100281.41;4970343;28;124194;-70
2023/07/01 11:11:55;;;;;;;2.05;1.20;;;;;;;23.29;59.28;100282.78;4988850;28;124343;-71
2023/07/01 11:14:43;;;;;;;2.30;1.67;;;;;;;23.32;59.18;100282.44;4992558;28;118878;-71
2023/07/01 11:17:15;;;;;;;2.22;1.50;;;;;;;23.32;59.04;100277.06;4989828;28;118708;-71
2023/07/01 11:19:46;;;;;;;1.85;1.42;;;;;;;23.35;59.27;100284.81;4973278;28;124080;-71
2023/07/01 11:22:14;;;;;;;1.92;1.60;;;;;;;23.37;59.37;100280.06;4988668;28;122723;-71
2023/07/01 11:24:41;;;;;;;2.92;1.63;;;;;;;23.42;59.44;100285.84;4994398;28;119229;-71